sensor_id;sensor_type;location;lat;lon;timestamp;P1;durP1;ratioP1;P2;durP2;ratioP2
24451;SDS011;13350;50.984;5.822;2022-09-30T00:02:21;8.13;;;4.90;;
24451;SDS011;13350;50.984;5.822;2022-09-30T00:04:49;6.55;;;4.75;;
24451;SDS011;13350;50.984;5.822;2022-09-30T00:07:17;7.45;;;5.45;;
24451;SDS011;13350;50.984;5.822;2022-09-30T00:09:44;8.15;;;5.25;;
24451;SDS011;13350;50.984;5.822;2022-09-30T00:12:13;6.78;;;4.60;;
24451;SDS011;13350;50.984;5.822;2022-09-30T00:14:40;6.95;;;5.07;;
24451;SDS011;13350;50.984;5.822;2022-09-30T00:17:07;8.95;;;4.95;;
24451;SDS011;13350;50.984;5.822;2022-09-30T00:19:34;7.20;;;5.13;;
24451;SDS011;13350;50.984;5.822;2022-09-30T00:22:03;7.40;;;4.82;;
24451;SDS011;13350;50.984;5.822;2022-09-30T00:24:30;7.93;;;5.25;;
24451;SDS011;13350;50.984;5.822;2022-09-30T00:26:57;9.88;;;5.40;;
24451;SDS011;13350;50.984;5.822;2022-09-30T00:29:25;7.72;;;5.63;;
24451;SDS011;13350;50.984;5.822;2022-09-30T00:31:52;10.35;;;6.05;;
24451;SDS011;13350;50.984;5.822;2022-09-30T00:34:19;7.68;;;6.13;;
24451;SDS011;13350;50.984;5.822;2022-09-30T00:36:47;10.23;;;6.57;;
24451;SDS011;13350;50.984;5.822;2022-09-30T00:39:17;8.45;;;5.78;;
24451;SDS011;13350;50.984;5.822;2022-09-30T00:41:47;8.85;;;6.35;;
24451;SDS011;13350;50.984;5.822;2022-09-30T00:50:03;13.40;;;5.78;;
24451;SDS011;13350;50.984;5.822;2022-09-30T00:52:37;8.27;;;5.95;;
24451;SDS011;13350;50.984;5.822;2022-09-30T00:55:14;9.85;;;6.28;;
24451;SDS011;13350;50.984;5.822;2022-09-30T00:57:55;10.13;;;5.78;;
24451;SDS011;13350;50.984;5.822;2022-09-30T01:00:24;6.80;;;5.53;;
24451;SDS011;13350;50.984;5.822;2022-09-30T01:02:51;9.23;;;6.10;;
24451;SDS011;13350;50.984;5.822;2022-09-30T01:05:20;9.10;;;5.93;;
24451;SDS011;13350;50.984;5.822;2022-09-30T01:07:48;7.85;;;6.20;;
24451;SDS011;13350;50.984;5.822;2022-09-30T01:10:17;9.95;;;6.40;;
24451;SDS011;13350;50.984;5.822;2022-09-30T01:12:44;9.02;;;5.78;;
24451;SDS011;13350;50.984;5.822;2022-09-30T01:15:11;7.25;;;5.93;;
24451;SDS011;13350;50.984;5.822;2022-09-30T01:17:42;7.93;;;6.25;;
24451;SDS011;13350;50.984;5.822;2022-09-30T01:23:31;9.00;;;5.90;;
24451;SDS011;13350;50.984;5.822;2022-09-30T01:26:38;8.25;;;6.82;;
24451;SDS011;13350;50.984;5.822;2022-09-30T01:29:44;10.73;;;7.05;;
24451;SDS011;13350;50.984;5.822;2022-09-30T01:32:31;7.97;;;6.32;;
24451;SDS011;13350;50.984;5.822;2022-09-30T01:35:16;8.75;;;6.47;;
24451;SDS011;13350;50.984;5.822;2022-09-30T01:37:51;9.18;;;6.97;;
24451;SDS011;13350;50.984;5.822;2022-09-30T01:40:27;10.00;;;6.88;;
24451;SDS011;13350;50.984;5.822;2022-09-30T01:43:03;8.70;;;6.18;;
24451;SDS011;13350;50.984;5.822;2022-09-30T01:45:36;9.50;;;7.05;;
24451;SDS011;13350;50.984;5.822;2022-09-30T01:48:10;8.88;;;7.03;;
24451;SDS011;13350;50.984;5.822;2022-09-30T01:50:45;8.93;;;7.07;;
24451;SDS011;13350;50.984;5.822;2022-09-30T01:53:20;12.38;;;7.72;;
24451;SDS011;13350;50.984;5.822;2022-09-30T01:55:52;8.23;;;6.95;;
24451;SDS011;13350;50.984;5.822;2022-09-30T02:00:58;9.48;;;7.57;;
24451;SDS011;13350;50.984;5.822;2022-09-30T02:03:29;15.98;;;6.95;;
24451;SDS011;13350;50.984;5.822;2022-09-30T02:06:01;11.93;;;7.68;;
24451;SDS011;13350;50.984;5.822;2022-09-30T02:08:34;10.82;;;8.00;;
24451;SDS011;13350;50.984;5.822;2022-09-30T02:11:07;12.85;;;8.00;;
24451;SDS011;13350;50.984;5.822;2022-09-30T02:13:39;9.45;;;7.50;;
24451;SDS011;13350;50.984;5.822;2022-09-30T02:16:14;11.10;;;8.18;;
24451;SDS011;13350;50.984;5.822;2022-09-30T02:18:49;10.80;;;8.20;;
24451;SDS011;13350;50.984;5.822;2022-09-30T02:21:20;11.68;;;8.18;;
24451;SDS011;13350;50.984;5.822;2022-09-30T02:23:54;11.43;;;8.65;;
24451;SDS011;13350;50.984;5.822;2022-09-30T02:26:27;12.85;;;8.93;;
24451;SDS011;13350;50.984;5.822;2022-09-30T02:28:57;11.82;;;8.48;;
24451;SDS011;13350;50.984;5.822;2022-09-30T02:31:28;14.73;;;8.93;;
24451;SDS011;13350;50.984;5.822;2022-09-30T02:34:00;10.43;;;8.60;;
24451;SDS011;13350;50.984;5.822;2022-09-30T02:36:32;11.15;;;8.80;;
24451;SDS011;13350;50.984;5.822;2022-09-30T02:39:05;11.20;;;8.57;;
24451;SDS011;13350;50.984;5.822;2022-09-30T02:41:38;10.25;;;8.73;;
24451;SDS011;13350;50.984;5.822;2022-09-30T02:44:10;10.40;;;8.48;;
24451;SDS011;13350;50.984;5.822;2022-09-30T02:46:40;11.23;;;7.78;;
24451;SDS011;13350;50.984;5.822;2022-09-30T02:49:16;11.57;;;8.30;;
24451;SDS011;13350;50.984;5.822;2022-09-30T02:51:52;10.02;;;8.40;;
24451;SDS011;13350;50.984;5.822;2022-09-30T02:54:30;11.77;;;8.40;;
24451;SDS011;13350;50.984;5.822;2022-09-30T02:57:03;9.80;;;7.57;;
24451;SDS011;13350;50.984;5.822;2022-09-30T02:59:41;9.82;;;8.80;;
24451;SDS011;13350;50.984;5.822;2022-09-30T03:02:09;9.27;;;8.25;;
24451;SDS011;13350;50.984;5.822;2022-09-30T03:04:37;10.32;;;7.82;;
24451;SDS011;13350;50.984;5.822;2022-09-30T03:07:06;11.05;;;9.05;;
24451;SDS011;13350;50.984;5.822;2022-09-30T03:09:34;11.05;;;9.32;;
24451;SDS011;13350;50.984;5.822;2022-09-30T03:12:06;11.88;;;9.32;;
24451;SDS011;13350;50.984;5.822;2022-09-30T03:20:44;11.10;;;9.13;;
24451;SDS011;13350;50.984;5.822;2022-09-30T03:23:22;12.00;;;9.27;;
24451;SDS011;13350;50.984;5.822;2022-09-30T03:26:09;12.80;;;9.52;;
24451;SDS011;13350;50.984;5.822;2022-09-30T03:28:45;11.93;;;9.05;;
24451;SDS011;13350;50.984;5.822;2022-09-30T03:31:23;14.80;;;8.80;;
24451;SDS011;13350;50.984;5.822;2022-09-30T03:33:58;11.98;;;8.98;;
24451;SDS011;13350;50.984;5.822;2022-09-30T03:36:36;13.52;;;9.30;;
24451;SDS011;13350;50.984;5.822;2022-09-30T03:39:10;11.70;;;8.68;;
24451;SDS011;13350;50.984;5.822;2022-09-30T03:41:49;13.40;;;9.45;;
24451;SDS011;13350;50.984;5.822;2022-09-30T03:44:22;12.45;;;9.10;;
24451;SDS011;13350;50.984;5.822;2022-09-30T03:46:55;10.20;;;8.70;;
24451;SDS011;13350;50.984;5.822;2022-09-30T03:49:28;12.98;;;9.82;;
24451;SDS011;13350;50.984;5.822;2022-09-30T03:52:00;13.40;;;9.35;;
24451;SDS011;13350;50.984;5.822;2022-09-30T03:54:31;12.55;;;9.27;;
24451;SDS011;13350;50.984;5.822;2022-09-30T03:57:02;12.10;;;9.10;;
24451;SDS011;13350;50.984;5.822;2022-09-30T03:59:30;11.50;;;9.52;;
24451;SDS011;13350;50.984;5.822;2022-09-30T04:01:57;11.23;;;9.57;;
24451;SDS011;13350;50.984;5.822;2022-09-30T04:04:24;13.30;;;10.73;;
24451;SDS011;13350;50.984;5.822;2022-09-30T04:06:52;12.80;;;9.75;;
24451;SDS011;13350;50.984;5.822;2022-09-30T04:09:20;16.25;;;10.60;;
24451;SDS011;13350;50.984;5.822;2022-09-30T04:11:48;13.48;;;10.23;;
24451;SDS011;13350;50.984;5.822;2022-09-30T04:14:15;12.75;;;10.27;;
24451;SDS011;13350;50.984;5.822;2022-09-30T04:16:42;13.13;;;9.95;;
24451;SDS011;13350;50.984;5.822;2022-09-30T04:19:10;13.07;;;9.63;;
24451;SDS011;13350;50.984;5.822;2022-09-30T04:21:37;12.65;;;10.30;;
24451;SDS011;13350;50.984;5.822;2022-09-30T04:24:04;13.13;;;10.23;;
24451;SDS011;13350;50.984;5.822;2022-09-30T04:26:33;13.73;;;9.50;;
24451;SDS011;13350;50.984;5.822;2022-09-30T04:29:00;11.73;;;9.65;;
24451;SDS011;13350;50.984;5.822;2022-09-30T04:31:28;13.05;;;8.93;;
24451;SDS011;13350;50.984;5.822;2022-09-30T04:33:55;9.57;;;8.20;;
24451;SDS011;13350;50.984;5.822;2022-09-30T04:36:23;11.32;;;8.32;;
24451;SDS011;13350;50.984;5.822;2022-09-30T04:38:50;10.55;;;7.57;;
24451;SDS011;13350;50.984;5.822;2022-09-30T04:41:18;13.45;;;8.48;;
24451;SDS011;13350;50.984;5.822;2022-09-30T04:43:47;10.23;;;7.85;;
24451;SDS011;13350;50.984;5.822;2022-09-30T04:46:14;10.25;;;8.20;;
24451;SDS011;13350;50.984;5.822;2022-09-30T04:48:42;11.60;;;7.97;;
24451;SDS011;13350;50.984;5.822;2022-09-30T04:51:10;10.75;;;8.23;;
24451;SDS011;13350;50.984;5.822;2022-09-30T04:53:38;11.18;;;8.27;;
24451;SDS011;13350;50.984;5.822;2022-09-30T04:56:05;9.75;;;7.90;;
24451;SDS011;13350;50.984;5.822;2022-09-30T04:58:33;11.05;;;7.95;;
24451;SDS011;13350;50.984;5.822;2022-09-30T05:01:03;9.98;;;8.05;;
24451;SDS011;13350;50.984;5.822;2022-09-30T05:03:32;10.85;;;8.02;;
24451;SDS011;13350;50.984;5.822;2022-09-30T05:06:00;9.85;;;8.38;;
24451;SDS011;13350;50.984;5.822;2022-09-30T05:08:27;14.05;;;9.25;;
24451;SDS011;13350;50.984;5.822;2022-09-30T05:10:57;13.13;;;9.98;;
24451;SDS011;13350;50.984;5.822;2022-09-30T05:13:28;16.70;;;10.73;;
24451;SDS011;13350;50.984;5.822;2022-09-30T05:15:56;14.20;;;11.15;;
24451;SDS011;13350;50.984;5.822;2022-09-30T05:18:25;15.55;;;10.70;;
24451;SDS011;13350;50.984;5.822;2022-09-30T05:20:53;12.73;;;10.00;;
24451;SDS011;13350;50.984;5.822;2022-09-30T05:23:21;12.07;;;9.70;;
24451;SDS011;13350;50.984;5.822;2022-09-30T05:25:50;12.60;;;10.13;;
24451;SDS011;13350;50.984;5.822;2022-09-30T05:28:17;12.30;;;10.27;;
24451;SDS011;13350;50.984;5.822;2022-09-30T05:30:45;13.18;;;9.73;;
24451;SDS011;13350;50.984;5.822;2022-09-30T05:33:14;11.35;;;8.95;;
24451;SDS011;13350;50.984;5.822;2022-09-30T05:35:43;12.55;;;9.05;;
24451;SDS011;13350;50.984;5.822;2022-09-30T05:38:10;13.38;;;9.80;;
24451;SDS011;13350;50.984;5.822;2022-09-30T05:40:37;10.73;;;8.43;;
24451;SDS011;13350;50.984;5.822;2022-09-30T05:43:05;12.52;;;9.88;;
24451;SDS011;13350;50.984;5.822;2022-09-30T05:45:33;11.05;;;9.43;;
24451;SDS011;13350;50.984;5.822;2022-09-30T05:48:00;13.50;;;10.23;;
24451;SDS011;13350;50.984;5.822;2022-09-30T05:50:28;13.18;;;10.23;;
24451;SDS011;13350;50.984;5.822;2022-09-30T05:52:57;14.20;;;11.25;;
24451;SDS011;13350;50.984;5.822;2022-09-30T05:55:24;16.23;;;11.80;;
24451;SDS011;13350;50.984;5.822;2022-09-30T05:57:51;16.10;;;11.65;;
24451;SDS011;13350;50.984;5.822;2022-09-30T06:00:18;17.52;;;12.43;;
24451;SDS011;13350;50.984;5.822;2022-09-30T06:02:49;15.23;;;11.18;;
24451;SDS011;13350;50.984;5.822;2022-09-30T06:05:17;12.95;;;10.80;;
24451;SDS011;13350;50.984;5.822;2022-09-30T06:07:46;11.52;;;9.88;;
24451;SDS011;13350;50.984;5.822;2022-09-30T06:10:16;14.00;;;10.75;;
24451;SDS011;13350;50.984;5.822;2022-09-30T06:12:43;15.23;;;10.93;;
24451;SDS011;13350;50.984;5.822;2022-09-30T06:15:10;13.80;;;11.00;;
24451;SDS011;13350;50.984;5.822;2022-09-30T06:17:37;14.65;;;11.98;;
24451;SDS011;13350;50.984;5.822;2022-09-30T06:20:07;13.90;;;10.80;;
24451;SDS011;13350;50.984;5.822;2022-09-30T06:22:35;13.52;;;10.45;;
24451;SDS011;13350;50.984;5.822;2022-09-30T06:25:03;12.80;;;10.10;;
24451;SDS011;13350;50.984;5.822;2022-09-30T06:27:33;11.98;;;9.30;;
24451;SDS011;13350;50.984;5.822;2022-09-30T06:30:01;15.77;;;9.95;;
24451;SDS011;13350;50.984;5.822;2022-09-30T06:32:29;14.82;;;9.73;;
24451;SDS011;13350;50.984;5.822;2022-09-30T06:34:56;12.27;;;8.77;;
24451;SDS011;13350;50.984;5.822;2022-09-30T06:37:23;13.10;;;9.13;;
24451;SDS011;13350;50.984;5.822;2022-09-30T06:39:51;11.30;;;8.55;;
24451;SDS011;13350;50.984;5.822;2022-09-30T06:42:18;14.85;;;9.57;;
24451;SDS011;13350;50.984;5.822;2022-09-30T06:44:50;14.15;;;11.15;;
24451;SDS011;13350;50.984;5.822;2022-09-30T06:47:18;17.27;;;11.70;;
24451;SDS011;13350;50.984;5.822;2022-09-30T06:49:46;13.82;;;11.18;;
24451;SDS011;13350;50.984;5.822;2022-09-30T06:52:13;16.05;;;10.32;;
24451;SDS011;13350;50.984;5.822;2022-09-30T06:54:40;13.43;;;10.32;;
24451;SDS011;13350;50.984;5.822;2022-09-30T06:57:08;11.23;;;9.85;;
24451;SDS011;13350;50.984;5.822;2022-09-30T06:59:35;14.70;;;10.15;;
24451;SDS011;13350;50.984;5.822;2022-09-30T07:02:04;11.80;;;10.02;;
24451;SDS011;13350;50.984;5.822;2022-09-30T07:04:31;13.35;;;10.18;;
24451;SDS011;13350;50.984;5.822;2022-09-30T07:06:59;14.02;;;9.65;;
24451;SDS011;13350;50.984;5.822;2022-09-30T07:09:27;17.10;;;9.88;;
24451;SDS011;13350;50.984;5.822;2022-09-30T07:11:54;12.80;;;10.38;;
24451;SDS011;13350;50.984;5.822;2022-09-30T07:14:21;15.40;;;11.00;;
24451;SDS011;13350;50.984;5.822;2022-09-30T07:16:48;12.00;;;10.30;;
24451;SDS011;13350;50.984;5.822;2022-09-30T07:19:19;13.68;;;9.82;;
24451;SDS011;13350;50.984;5.822;2022-09-30T07:21:47;15.00;;;10.70;;
24451;SDS011;13350;50.984;5.822;2022-09-30T07:24:15;13.93;;;10.32;;
24451;SDS011;13350;50.984;5.822;2022-09-30T07:26:42;13.73;;;11.02;;
24451;SDS011;13350;50.984;5.822;2022-09-30T07:29:10;12.55;;;9.93;;
24451;SDS011;13350;50.984;5.822;2022-09-30T07:31:38;12.65;;;10.85;;
24451;SDS011;13350;50.984;5.822;2022-09-30T07:34:06;14.77;;;11.63;;
24451;SDS011;13350;50.984;5.822;2022-09-30T07:36:36;15.77;;;11.82;;
24451;SDS011;13350;50.984;5.822;2022-09-30T07:39:06;13.60;;;12.00;;
24451;SDS011;13350;50.984;5.822;2022-09-30T07:41:37;15.80;;;11.88;;
24451;SDS011;13350;50.984;5.822;2022-09-30T07:44:06;13.63;;;11.52;;
24451;SDS011;13350;50.984;5.822;2022-09-30T07:46:36;16.15;;;11.23;;
24451;SDS011;13350;50.984;5.822;2022-09-30T07:49:05;13.32;;;10.68;;
24451;SDS011;13350;50.984;5.822;2022-09-30T07:51:38;14.80;;;10.77;;
24451;SDS011;13350;50.984;5.822;2022-09-30T07:54:09;15.60;;;10.55;;
24451;SDS011;13350;50.984;5.822;2022-09-30T07:56:39;13.68;;;10.15;;
24451;SDS011;13350;50.984;5.822;2022-09-30T07:59:09;12.95;;;10.13;;
24451;SDS011;13350;50.984;5.822;2022-09-30T08:01:36;14.23;;;11.07;;
24451;SDS011;13350;50.984;5.822;2022-09-30T08:04:05;13.90;;;10.80;;
24451;SDS011;13350;50.984;5.822;2022-09-30T08:06:36;14.10;;;10.50;;
24451;SDS011;13350;50.984;5.822;2022-09-30T08:09:06;16.55;;;10.35;;
24451;SDS011;13350;50.984;5.822;2022-09-30T08:11:34;13.25;;;10.13;;
24451;SDS011;13350;50.984;5.822;2022-09-30T08:14:03;12.32;;;10.65;;
24451;SDS011;13350;50.984;5.822;2022-09-30T08:16:31;14.40;;;11.10;;
24451;SDS011;13350;50.984;5.822;2022-09-30T08:18:59;15.18;;;10.32;;
24451;SDS011;13350;50.984;5.822;2022-09-30T08:21:27;12.95;;;10.60;;
24451;SDS011;13350;50.984;5.822;2022-09-30T08:23:56;11.07;;;9.38;;
24451;SDS011;13350;50.984;5.822;2022-09-30T08:26:23;13.77;;;10.43;;
24451;SDS011;13350;50.984;5.822;2022-09-30T08:28:51;14.25;;;9.45;;
24451;SDS011;13350;50.984;5.822;2022-09-30T08:31:20;12.90;;;8.50;;
24451;SDS011;13350;50.984;5.822;2022-09-30T08:33:49;13.55;;;8.82;;
24451;SDS011;13350;50.984;5.822;2022-09-30T08:36:17;10.85;;;8.60;;
24451;SDS011;13350;50.984;5.822;2022-09-30T08:38:45;9.05;;;7.28;;
24451;SDS011;13350;50.984;5.822;2022-09-30T08:41:21;9.30;;;7.85;;
24451;SDS011;13350;50.984;5.822;2022-09-30T08:44:00;10.93;;;7.85;;
24451;SDS011;13350;50.984;5.822;2022-09-30T08:46:37;10.60;;;7.20;;
24451;SDS011;13350;50.984;5.822;2022-09-30T08:51:49;9.90;;;6.90;;
24451;SDS011;13350;50.984;5.822;2022-09-30T08:54:20;8.77;;;6.68;;
24451;SDS011;13350;50.984;5.822;2022-09-30T08:56:51;7.47;;;6.07;;
24451;SDS011;13350;50.984;5.822;2022-09-30T08:59:21;9.60;;;5.93;;
24451;SDS011;13350;50.984;5.822;2022-09-30T09:01:57;10.13;;;5.43;;
24451;SDS011;13350;50.984;5.822;2022-09-30T09:04:27;5.78;;;5.15;;
24451;SDS011;13350;50.984;5.822;2022-09-30T09:06:56;7.15;;;5.15;;
24451;SDS011;13350;50.984;5.822;2022-09-30T09:12:18;8.13;;;4.72;;
24451;SDS011;13350;50.984;5.822;2022-09-30T09:14:59;4.82;;;3.83;;
24451;SDS011;13350;50.984;5.822;2022-09-30T09:17:57;6.77;;;4.50;;
24451;SDS011;13350;50.984;5.822;2022-09-30T09:20:46;4.80;;;3.83;;
24451;SDS011;13350;50.984;5.822;2022-09-30T09:23:18;6.13;;;4.50;;
24451;SDS011;13350;50.984;5.822;2022-09-30T09:25:46;7.18;;;3.70;;
24451;SDS011;13350;50.984;5.822;2022-09-30T09:28:24;6.93;;;4.40;;
24451;SDS011;13350;50.984;5.822;2022-09-30T09:30:58;5.18;;;4.15;;
24451;SDS011;13350;50.984;5.822;2022-09-30T09:33:27;4.57;;;3.72;;
24451;SDS011;13350;50.984;5.822;2022-09-30T09:36:00;5.90;;;3.85;;
24451;SDS011;13350;50.984;5.822;2022-09-30T09:38:46;6.57;;;4.15;;
24451;SDS011;13350;50.984;5.822;2022-09-30T09:41:29;4.30;;;3.67;;
24451;SDS011;13350;50.984;5.822;2022-09-30T09:44:07;4.90;;;3.47;;
24451;SDS011;13350;50.984;5.822;2022-09-30T09:46:40;6.35;;;4.47;;
24451;SDS011;13350;50.984;5.822;2022-09-30T09:52:09;7.03;;;4.97;;
24451;SDS011;13350;50.984;5.822;2022-09-30T09:54:57;7.30;;;4.53;;
24451;SDS011;13350;50.984;5.822;2022-09-30T09:57:25;7.18;;;5.32;;
24451;SDS011;13350;50.984;5.822;2022-09-30T09:59:57;6.45;;;5.30;;
24451;SDS011;13350;50.984;5.822;2022-09-30T10:02:56;9.15;;;5.90;;
24451;SDS011;13350;50.984;5.822;2022-09-30T10:05:26;8.82;;;6.20;;
24451;SDS011;13350;50.984;5.822;2022-09-30T10:08:09;8.00;;;6.05;;
24451;SDS011;13350;50.984;5.822;2022-09-30T10:10:41;9.60;;;6.43;;
24451;SDS011;13350;50.984;5.822;2022-09-30T10:13:15;9.90;;;5.97;;
24451;SDS011;13350;50.984;5.822;2022-09-30T10:15:49;7.93;;;6.43;;
24451;SDS011;13350;50.984;5.822;2022-09-30T10:18:22;9.25;;;6.65;;
24451;SDS011;13350;50.984;5.822;2022-09-30T10:20:53;10.88;;;6.80;;
24451;SDS011;13350;50.984;5.822;2022-09-30T10:23:25;8.73;;;7.07;;
24451;SDS011;13350;50.984;5.822;2022-09-30T10:25:58;8.85;;;7.20;;
